Terminal Aerodrome Forecast
Issued by NWS Cleveland, OH

Home | Current Version | Previous Version | Graphics & Text | Print | Product List | Glossary On
Versions: 1 2 3 4 5 6 7 8 9 10 11 12 13 14 15 16 17 18 19
000
FTUS41 KCLE 240800 AAA
TAFERI
TAF AMD
KERI 240833Z 2409/2506 16012KT 6SM -RA BR SCT025 OVC060
     FM241200 16010G20KT P6SM SCT012 OVC035
     FM242000 16015G25KT P6SM SCT012 OVC035
     FM250000 19020G30KT P6SM -SHRA OVC025
     FM250200 21025G40KT P6SM OVC025=

USA.gov is the U.S. government's official web portal to all federal, state and local government web resources and services.